createdAt,value
2023-02-13T00:01:18.514Z,95776.00
2023-02-13T00:03:50.250Z,95788.00
2023-02-13T00:06:19.440Z,95780.00
2023-02-13T00:08:48.708Z,95778.00
2023-02-13T00:11:15.640Z,95777.00
2023-02-13T00:13:44.841Z,95762.00
2023-02-13T00:16:14.168Z,95765.00
2023-02-13T00:18:41.185Z,95784.00
2023-02-13T00:21:11.809Z,95784.00
2023-02-13T00:23:42.196Z,95778.00
2023-02-13T00:26:13.235Z,95780.00
2023-02-13T00:28:40.766Z,95781.00
2023-02-13T00:31:23.333Z,95773.00
2023-02-13T00:33:50.466Z,95771.00
2023-02-13T00:36:23.200Z,95777.00
2023-02-13T00:38:50.250Z,95768.00
2023-02-13T00:41:19.460Z,95774.00
2023-02-13T00:43:47.757Z,95757.00
2023-02-13T00:46:16.382Z,95762.00
2023-02-13T00:48:44.187Z,95759.00
2023-02-13T00:51:14.479Z,95757.00
2023-02-13T00:53:46.190Z,95762.00
2023-02-13T00:56:15.527Z,95757.00
2023-02-13T00:58:44.980Z,95759.00
2023-02-13T01:01:11.929Z,95767.00
2023-02-13T01:03:39.597Z,95767.00
2023-02-13T01:06:07.298Z,95767.00
2023-02-13T01:08:35.315Z,95768.00
2023-02-13T01:11:02.217Z,95765.00
2023-02-13T01:13:31.740Z,95761.00
2023-02-13T01:15:58.901Z,95764.00
2023-02-13T01:18:25.893Z,95765.00
2023-02-13T01:20:59.829Z,95774.00
2023-02-13T01:23:36.420Z,95758.00
2023-02-13T01:26:09.245Z,95762.00
2023-02-13T01:28:36.284Z,95769.00
2023-02-13T01:31:08.756Z,95768.00
2023-02-13T01:33:37.929Z,95768.00
2023-02-13T01:36:10.788Z,95774.00
2023-02-13T01:38:42.955Z,95774.00
2023-02-13T01:41:10.588Z,95775.00
2023-02-13T01:43:55.696Z,95780.00
2023-02-13T01:46:43.284Z,95778.00
2023-02-13T01:49:20.322Z,95775.00
2023-02-13T01:51:52.243Z,95770.00
2023-02-13T01:54:30.880Z,95771.00
2023-02-13T01:57:24.730Z,95771.00
2023-02-13T02:00:10.821Z,95775.00
2023-02-13T02:02:46.057Z,95773.00
2023-02-13T02:05:18.932Z,95777.00
2023-02-13T02:07:46.938Z,95782.00
2023-02-13T02:10:18.279Z,95779.00
2023-02-13T02:13:01.013Z,95781.00
2023-02-13T02:15:30.225Z,95785.00
2023-02-13T02:17:57.162Z,95783.00
2023-02-13T02:21:08.846Z,95792.00
2023-02-13T02:23:50.604Z,95786.00
2023-02-13T02:26:54.856Z,95781.00
2023-02-13T02:29:30.452Z,95774.00
2023-02-13T02:32:21.506Z,95784.00
2023-02-13T02:35:24.829Z,95782.00
2023-02-13T02:38:15.330Z,95775.00
2023-02-13T02:41:09.026Z,95772.00
2023-02-13T02:44:01.684Z,95770.00
2023-02-13T02:46:33.153Z,95773.00
2023-02-13T02:49:34.615Z,95770.00
2023-02-13T02:52:20.109Z,95776.00
2023-02-13T02:55:08.970Z,95776.00
2023-02-13T02:58:05.880Z,95779.00
2023-02-13T03:00:53.768Z,95782.00
2023-02-13T03:03:44.187Z,95765.00
2023-02-13T03:06:28.395Z,95778.00
2023-02-13T03:09:19.595Z,95781.00
2023-02-13T03:12:09.495Z,95777.00
2023-02-13T03:14:37.329Z,95783.00
2023-02-13T03:17:25.002Z,95789.00
2023-02-13T03:20:58.709Z,95786.00
2023-02-13T03:23:46.551Z,95786.00
2023-02-13T03:26:51.716Z,95795.00
2023-02-13T03:30:08.653Z,95789.00
2023-02-13T03:32:44.778Z,95794.00
2023-02-13T03:36:05.524Z,95792.00
2023-02-13T03:39:12.939Z,95798.00
2023-02-13T03:42:02.576Z,95801.00
2023-02-13T03:45:08.462Z,95798.00
2023-02-13T03:47:39.136Z,95793.00
2023-02-13T03:50:09.869Z,95810.00
2023-02-13T03:53:00.223Z,95813.00
2023-02-13T03:55:53.174Z,95814.00
2023-02-13T03:58:55.284Z,95805.00
2023-02-13T04:01:31.304Z,95817.00
2023-02-13T04:04:13.140Z,95815.00
2023-02-13T04:06:56.409Z,95812.00
2023-02-13T04:09:27.731Z,95824.00
2023-02-13T04:11:57.089Z,95818.00
2023-02-13T04:14:48.535Z,95818.00
2023-02-13T04:17:24.420Z,95822.00
2023-02-13T04:19:54.832Z,95816.00
2023-02-13T04:22:24.296Z,95831.00
2023-02-13T04:24:51.273Z,95828.00
2023-02-13T04:27:18.418Z,95832.00
2023-02-13T04:29:47.510Z,95834.00
2023-02-13T04:32:17.472Z,95833.00
2023-02-13T04:34:46.651Z,95834.00
2023-02-13T04:37:13.499Z,95820.00
2023-02-13T04:39:40.370Z,95824.00
2023-02-13T04:42:09.783Z,95836.00
2023-02-13T04:44:36.592Z,95831.00
2023-02-13T04:47:08.073Z,95817.00
2023-02-13T04:49:35.026Z,95832.00
2023-02-13T04:52:01.934Z,95837.00
2023-02-13T04:54:28.845Z,95830.00
2023-02-13T04:56:55.724Z,95830.00
2023-02-13T04:59:22.515Z,95830.00
2023-02-13T05:01:51.601Z,95834.00
2023-02-13T05:04:21.045Z,95830.00
2023-02-13T05:06:47.846Z,95830.00
2023-02-13T05:09:14.763Z,95827.00
2023-02-13T05:11:41.618Z,95824.00
2023-02-13T05:14:11.450Z,95836.00
2023-02-13T05:16:38.614Z,95835.00
2023-02-13T05:19:05.539Z,95827.00
2023-02-13T05:21:52.880Z,95836.00
2023-02-13T05:24:22.008Z,95845.00
2023-02-13T05:26:50.961Z,95844.00
2023-02-13T05:29:20.600Z,95839.00
2023-02-13T05:31:49.500Z,95843.00
2023-02-13T05:34:16.523Z,95842.00
2023-02-13T05:36:43.506Z,95842.00
2023-02-13T05:39:10.541Z,95844.00
2023-02-13T05:41:39.944Z,95849.00
2023-02-13T05:44:06.867Z,95848.00
2023-02-13T05:46:34.242Z,95844.00
2023-02-13T05:49:02.696Z,95854.00
2023-02-13T05:51:30.877Z,95849.00
2023-02-13T05:53:57.751Z,95846.00
2023-02-13T05:56:24.908Z,95851.00
2023-02-13T05:58:55.642Z,95846.00
2023-02-13T06:01:24.179Z,95835.00
2023-02-13T06:03:51.609Z,95846.00
2023-02-13T06:06:22.722Z,95842.00
2023-02-13T06:08:52.090Z,95834.00
2023-02-13T06:11:19.022Z,95835.00
2023-02-13T06:13:46.077Z,95840.00
2023-02-13T06:16:15.626Z,95852.00
2023-02-13T06:18:42.478Z,95852.00
2023-02-13T06:21:09.876Z,95852.00
2023-02-13T06:23:36.767Z,95835.00
2023-02-13T06:26:10.882Z,95849.00
2023-02-13T06:28:37.832Z,95842.00
2023-02-13T06:31:07.179Z,95841.00
2023-02-13T06:33:34.072Z,95848.00
2023-02-13T06:36:03.664Z,95845.00
2023-02-13T06:38:32.013Z,95841.00
2023-02-13T06:41:02.234Z,95843.00
2023-02-13T06:43:29.398Z,95848.00
2023-02-13T06:45:58.802Z,95849.00
2023-02-13T06:48:26.090Z,95851.00
2023-02-13T06:50:53.038Z,95853.00
2023-02-13T06:53:24.985Z,95849.00
2023-02-13T06:55:53.580Z,95846.00
2023-02-13T06:58:21.975Z,95853.00
2023-02-13T07:00:54.552Z,95854.00
2023-02-13T07:03:26.315Z,95857.00
2023-02-13T07:05:53.214Z,95865.00
2023-02-13T07:08:20.053Z,95864.00
2023-02-13T07:10:52.020Z,95863.00
2023-02-13T07:13:18.844Z,95874.00
2023-02-13T07:15:50.241Z,95878.00
2023-02-13T07:18:17.099Z,95874.00
2023-02-13T07:20:46.464Z,95874.00
2023-02-13T07:23:13.338Z,95886.00
2023-02-13T07:25:40.197Z,95888.00
2023-02-13T07:28:07.535Z,95895.00
2023-02-13T07:30:35.220Z,95884.00
2023-02-13T07:33:05.624Z,95891.00
2023-02-13T07:35:33.153Z,95896.00
2023-02-13T07:38:00.802Z,95891.00
2023-02-13T07:40:28.467Z,95892.00
2023-02-13T07:42:56.322Z,95900.00
2023-02-13T07:45:23.281Z,95884.00
2023-02-13T07:47:52.215Z,95888.00
2023-02-13T07:50:19.295Z,95890.00
2023-02-13T07:52:57.358Z,95888.00
2023-02-13T07:55:29.827Z,95894.00
2023-02-13T07:57:59.738Z,95896.00
2023-02-13T08:00:29.700Z,95895.00
2023-02-13T08:03:00.354Z,95892.00
2023-02-13T08:05:28.530Z,95898.00
2023-02-13T08:07:55.394Z,95899.00
2023-02-13T08:10:43.126Z,95890.00
2023-02-13T08:13:12.212Z,95883.00
2023-02-13T08:15:39.054Z,95888.00
2023-02-13T08:18:10.564Z,95896.00
2023-02-13T08:20:37.481Z,95900.00
2023-02-13T08:23:06.935Z,95895.00
2023-02-13T08:25:36.690Z,95896.00
2023-02-13T08:28:06.325Z,95902.00
2023-02-13T08:30:33.393Z,95903.00
2023-02-13T08:33:00.284Z,95900.00
2023-02-13T08:35:31.538Z,95901.00
2023-02-13T08:38:05.134Z,95908.00
2023-02-13T08:40:32.846Z,95905.00
2023-02-13T08:43:05.226Z,95901.00
2023-02-13T08:45:36.375Z,95907.00
2023-02-13T08:48:07.518Z,95898.00
2023-02-13T08:50:36.287Z,95907.00
2023-02-13T08:53:06.509Z,95905.00
2023-02-13T08:55:35.902Z,95893.00
2023-02-13T08:58:04.721Z,95908.00
2023-02-13T09:00:32.071Z,95905.00
2023-02-13T09:03:02.826Z,95917.00
2023-02-13T09:05:31.683Z,95915.00
2023-02-13T09:08:03.725Z,95904.00
2023-02-13T09:10:32.642Z,95909.00
2023-02-13T09:13:01.912Z,95903.00
2023-02-13T09:15:28.834Z,95909.00
2023-02-13T09:18:00.277Z,95906.00
2023-02-13T09:20:27.327Z,95893.00
2023-02-13T09:22:56.311Z,95904.00
2023-02-13T09:25:25.597Z,95905.00
2023-02-13T09:27:52.471Z,95903.00
2023-02-13T09:30:25.119Z,95901.00
2023-02-13T09:32:53.560Z,95890.00
2023-02-13T09:35:20.970Z,95892.00
2023-02-13T09:37:52.015Z,95892.00
2023-02-13T09:40:31.971Z,95890.00
2023-02-13T09:43:37.248Z,95890.00
2023-02-13T09:46:20.311Z,95904.00
2023-02-13T09:48:57.624Z,95893.00
2023-02-13T09:51:28.395Z,95889.00
2023-02-13T09:54:08.212Z,95901.00
2023-02-13T09:57:18.196Z,95892.00
2023-02-13T09:59:57.223Z,95895.00
2023-02-13T10:02:58.397Z,95897.00
2023-02-13T10:05:57.730Z,95901.00
2023-02-13T10:08:55.500Z,95897.00
2023-02-13T10:12:09.556Z,95899.00
2023-02-13T10:14:47.635Z,95901.00
2023-02-13T10:17:30.213Z,95901.00
2023-02-13T10:20:08.883Z,95905.00
2023-02-13T10:22:47.457Z,95899.00
2023-02-13T10:25:28.633Z,95903.00
2023-02-13T10:28:41.043Z,95895.00
2023-02-13T10:31:15.083Z,95889.00
2023-02-13T10:33:52.278Z,95889.00
2023-02-13T10:36:29.169Z,95888.00
2023-02-13T10:39:07.791Z,95886.00
2023-02-13T10:42:07.337Z,95891.00
2023-02-13T10:45:07.638Z,95887.00
2023-02-13T10:47:42.602Z,95890.00
2023-02-13T10:50:18.053Z,95880.00
2023-02-13T10:52:55.213Z,95874.00
2023-02-13T10:56:17.552Z,95873.00
2023-02-13T10:59:01.768Z,95879.00
2023-02-13T11:01:53.258Z,95873.00
2023-02-13T11:04:20.739Z,95885.00
2023-02-13T11:07:15.007Z,95869.00
2023-02-13T11:09:47.591Z,95866.00
2023-02-13T11:12:30.138Z,95864.00
2023-02-13T11:15:08.902Z,95860.00
2023-02-13T11:17:41.506Z,95862.00
2023-02-13T11:20:39.614Z,95866.00
2023-02-13T11:23:26.676Z,95861.00
2023-02-13T11:26:09.188Z,95861.00
2023-02-13T11:28:47.730Z,95863.00
2023-02-13T11:31:35.630Z,95868.00
2023-02-13T11:34:27.864Z,95859.00
2023-02-13T11:37:15.178Z,95849.00
2023-02-13T11:39:49.550Z,95853.00
2023-02-13T11:42:32.948Z,95846.00
2023-02-13T11:45:26.140Z,95844.00
2023-02-13T11:47:58.020Z,95852.00
2023-02-13T11:50:32.386Z,95849.00
2023-02-13T11:53:05.772Z,95855.00
2023-02-13T11:55:35.314Z,95844.00
2023-02-13T11:58:18.408Z,95846.00
2023-02-13T12:00:46.256Z,95843.00
2023-02-13T12:03:22.239Z,95850.00
2023-02-13T12:06:12.948Z,95846.00
2023-02-13T12:08:42.259Z,95846.00
2023-02-13T12:11:46.572Z,95836.00
2023-02-13T12:14:22.768Z,95841.00
2023-02-13T12:17:31.267Z,95839.00
2023-02-13T12:19:59.516Z,95842.00
2023-02-13T12:22:44.255Z,95836.00
2023-02-13T12:25:38.453Z,95834.00
2023-02-13T12:28:26.595Z,95836.00
2023-02-13T12:31:30.822Z,95832.00
2023-02-13T12:34:23.796Z,95826.00
2023-02-13T12:37:28.462Z,95823.00
2023-02-13T12:40:46.419Z,95822.00
2023-02-13T12:43:30.631Z,95816.00
2023-02-13T12:46:15.206Z,95817.00
2023-02-13T12:49:03.074Z,95812.00
2023-02-13T12:51:56.330Z,95815.00
2023-02-13T12:54:40.316Z,95796.00
2023-02-13T12:57:33.004Z,95813.00
2023-02-13T13:00:48.175Z,95804.00
2023-02-13T13:03:46.073Z,95810.00
2023-02-13T13:06:41.273Z,95799.00
2023-02-13T13:09:11.203Z,95807.00
2023-02-13T13:12:16.583Z,95809.00
2023-02-13T13:15:30.524Z,95817.00
2023-02-13T13:18:15.500Z,95811.00
2023-02-13T13:21:06.862Z,95807.00
2023-02-13T13:24:17.256Z,95816.00
2023-02-13T13:26:50.597Z,95807.00
2023-02-13T13:29:26.798Z,95814.00
2023-02-13T13:32:05.408Z,95818.00
2023-02-13T13:34:38.010Z,95803.00
2023-02-13T13:37:21.397Z,95809.00
2023-02-13T13:40:17.210Z,95818.00
2023-02-13T13:43:03.024Z,95817.00
2023-02-13T13:46:08.116Z,95806.00
2023-02-13T13:49:17.471Z,95806.00
2023-02-13T13:51:44.716Z,95805.00
2023-02-13T13:54:11.481Z,95801.00
2023-02-13T13:56:53.711Z,95803.00
2023-02-13T13:59:53.785Z,95801.00
2023-02-13T14:02:20.642Z,95795.00
2023-02-13T14:05:09.866Z,95797.00
2023-02-13T14:07:41.626Z,95792.00
2023-02-13T14:10:26.892Z,95800.00
2023-02-13T14:12:56.542Z,95792.00
2023-02-13T14:15:38.733Z,95793.00
2023-02-13T14:18:17.133Z,95788.00
2023-02-13T14:20:50.621Z,95788.00
2023-02-13T14:23:45.603Z,95787.00
2023-02-13T14:26:21.061Z,95787.00
2023-02-13T14:28:50.732Z,95788.00
2023-02-13T14:31:39.523Z,95787.00
2023-02-13T14:34:14.315Z,95781.00
2023-02-13T14:36:48.397Z,95782.00
2023-02-13T14:39:31.211Z,95787.00
2023-02-13T14:42:01.365Z,95788.00
2023-02-13T14:44:49.676Z,95783.00
2023-02-13T14:47:55.503Z,95796.00
2023-02-13T14:50:34.813Z,95797.00
2023-02-13T14:53:30.412Z,95787.00
2023-02-13T14:56:06.398Z,95778.00
2023-02-13T14:58:46.890Z,95782.00
2023-02-13T15:02:17.144Z,95785.00
2023-02-13T15:04:47.919Z,95790.00
2023-02-13T15:07:23.663Z,95784.00
2023-02-13T15:09:59.661Z,95789.00
2023-02-13T15:12:37.650Z,95782.00
2023-02-13T15:15:36.045Z,95779.00
2023-02-13T15:18:12.974Z,95781.00
2023-02-13T15:20:43.451Z,95781.00
2023-02-13T15:23:26.622Z,95779.00
2023-02-13T15:26:06.181Z,95779.00
2023-02-13T15:28:35.710Z,95776.00
2023-02-13T15:31:22.399Z,95767.00
2023-02-13T15:33:51.348Z,95762.00
2023-02-13T15:36:26.975Z,95777.00
2023-02-13T15:39:03.912Z,95773.00
2023-02-13T15:41:41.241Z,95773.00
2023-02-13T15:44:13.939Z,95773.00
2023-02-13T15:46:42.020Z,95771.00
2023-02-13T15:49:16.067Z,95779.00
2023-02-13T15:51:44.062Z,95771.00
2023-02-13T15:54:36.016Z,95764.00
2023-02-13T15:57:10.220Z,95769.00
2023-02-13T15:59:45.480Z,95766.00
2023-02-13T16:02:24.106Z,95761.00
2023-02-13T16:04:54.570Z,95762.00
2023-02-13T16:07:21.963Z,95762.00
2023-02-13T16:09:48.934Z,95754.00
2023-02-13T16:12:23.780Z,95758.00
2023-02-13T16:15:06.004Z,95753.00
2023-02-13T16:17:39.463Z,95766.00
2023-02-13T16:20:12.491Z,95762.00
2023-02-13T16:22:52.964Z,95762.00
2023-02-13T16:25:26.941Z,95771.00
2023-02-13T16:28:01.781Z,95758.00
2023-02-13T16:30:47.564Z,95765.00
2023-02-13T16:33:20.511Z,95774.00
2023-02-13T16:35:56.663Z,95776.00
2023-02-13T16:38:42.341Z,95777.00
2023-02-13T16:41:26.567Z,95785.00
2023-02-13T16:44:22.312Z,95784.00
2023-02-13T16:47:20.885Z,95784.00
2023-02-13T16:49:56.569Z,95780.00
2023-02-13T16:52:28.977Z,95793.00
2023-02-13T16:54:59.488Z,95795.00
2023-02-13T16:57:33.966Z,95789.00
2023-02-13T17:00:25.561Z,95800.00
2023-02-13T17:02:54.842Z,95793.00
2023-02-13T17:05:28.189Z,95796.00
2023-02-13T17:07:59.620Z,95795.00
2023-02-13T17:10:33.610Z,95799.00
2023-02-13T17:13:13.796Z,95804.00
2023-02-13T17:15:46.337Z,95799.00
2023-02-13T17:18:15.640Z,95802.00
2023-02-13T17:20:44.360Z,95808.00
2023-02-13T17:23:18.534Z,95809.00
2023-02-13T17:25:49.598Z,95809.00
2023-02-13T17:28:24.397Z,95812.00
2023-02-13T17:30:54.498Z,95806.00
2023-02-13T17:33:34.931Z,95815.00
2023-02-13T17:36:04.865Z,95812.00
2023-02-13T17:38:34.757Z,95812.00
2023-02-13T17:41:04.274Z,95810.00
2023-02-13T17:43:31.164Z,95807.00
2023-02-13T17:46:01.569Z,95807.00
2023-02-13T17:48:30.644Z,95812.00
2023-02-13T17:51:02.062Z,95807.00
2023-02-13T17:53:30.396Z,95819.00
2023-02-13T17:56:02.397Z,95814.00
2023-02-13T17:58:29.333Z,95825.00
2023-02-13T18:00:56.516Z,95819.00
2023-02-13T18:03:23.599Z,95820.00
2023-02-13T18:05:50.588Z,95821.00
2023-02-13T18:08:17.815Z,95815.00
2023-02-13T18:10:44.735Z,95824.00
2023-02-13T18:13:15.112Z,95811.00
2023-02-13T18:15:47.739Z,95814.00
2023-02-13T18:18:18.595Z,95803.00
2023-02-13T18:20:48.285Z,95813.00
2023-02-13T18:23:17.594Z,95803.00
2023-02-13T18:25:44.512Z,95813.00
2023-02-13T18:28:14.404Z,95817.00
2023-02-13T18:30:44.484Z,95816.00
2023-02-13T18:33:16.558Z,95806.00
2023-02-13T18:35:43.466Z,95813.00
2023-02-13T18:38:12.921Z,95816.00
2023-02-13T18:40:39.789Z,95815.00
2023-02-13T18:43:11.392Z,95812.00
2023-02-13T18:45:41.169Z,95819.00
2023-02-13T18:48:10.333Z,95820.00
2023-02-13T18:50:41.129Z,95815.00
2023-02-13T18:53:10.551Z,95819.00
2023-02-13T18:55:40.282Z,95815.00
2023-02-13T18:58:07.288Z,95823.00
2023-02-13T19:00:36.658Z,95822.00
2023-02-13T19:03:05.776Z,95828.00
2023-02-13T19:05:37.261Z,95831.00
2023-02-13T19:08:05.637Z,95829.00
2023-02-13T19:10:35.623Z,95824.00
2023-02-13T19:13:02.574Z,95834.00
2023-02-13T19:15:29.574Z,95830.00
2023-02-13T19:17:58.775Z,95822.00
2023-02-13T19:20:25.844Z,95825.00
2023-02-13T19:22:57.372Z,95823.00
2023-02-13T19:25:24.464Z,95824.00
2023-02-13T19:27:53.912Z,95821.00
2023-02-13T19:30:21.113Z,95827.00
2023-02-13T19:32:48.189Z,95823.00
2023-02-13T19:35:15.111Z,95830.00
2023-02-13T19:37:44.678Z,95831.00
2023-02-13T19:40:13.748Z,95831.00
2023-02-13T19:42:40.911Z,95822.00
2023-02-13T19:45:11.387Z,95838.00
2023-02-13T19:47:38.458Z,95831.00
2023-02-13T19:50:09.728Z,95832.00
2023-02-13T19:52:39.132Z,95838.00
2023-02-13T19:55:08.831Z,95840.00
2023-02-13T19:57:36.661Z,95836.00
2023-02-13T20:00:07.741Z,95834.00
2023-02-13T20:02:38.234Z,95839.00
2023-02-13T20:05:08.002Z,95841.00
2023-02-13T20:07:34.966Z,95843.00
2023-02-13T20:10:05.510Z,95821.00
2023-02-13T20:12:32.499Z,95832.00
2023-02-13T20:15:03.580Z,95810.00
2023-02-13T20:17:30.792Z,95833.00
2023-02-13T20:20:00.858Z,95818.00
2023-02-13T20:22:28.181Z,95829.00
2023-02-13T20:24:55.171Z,95817.00
2023-02-13T20:27:28.719Z,95823.00
2023-02-13T20:30:03.476Z,95817.00
2023-02-13T20:32:34.094Z,95817.00
2023-02-13T20:35:01.160Z,95818.00
2023-02-13T20:37:30.247Z,95819.00
2023-02-13T20:39:59.742Z,95818.00
2023-02-13T20:42:27.454Z,95832.00
2023-02-13T20:44:56.551Z,95815.00
2023-02-13T20:47:23.537Z,95822.00
2023-02-13T20:49:57.275Z,95826.00
2023-02-13T20:52:24.240Z,95828.00
2023-02-13T20:54:51.216Z,95823.00
2023-02-13T20:57:18.566Z,95819.00
2023-02-13T20:59:47.666Z,95819.00
2023-02-13T21:02:14.871Z,95829.00
2023-02-13T21:04:41.910Z,95812.00
2023-02-13T21:07:09.346Z,95809.00
2023-02-13T21:09:37.826Z,95810.00
2023-02-13T21:12:08.025Z,95811.00
2023-02-13T21:14:37.457Z,95807.00
2023-02-13T21:17:07.651Z,95806.00
2023-02-13T21:19:35.159Z,95805.00
2023-02-13T21:22:13.316Z,95799.00
2023-02-13T21:24:52.863Z,95799.00
2023-02-13T21:27:24.847Z,95795.00
2023-02-13T21:29:51.850Z,95801.00
2023-02-13T21:32:21.664Z,95803.00
2023-02-13T21:34:48.626Z,95801.00
2023-02-13T21:37:15.481Z,95788.00
2023-02-13T21:39:46.702Z,95815.00
2023-02-13T21:42:15.096Z,95818.00
2023-02-13T21:44:42.180Z,95813.00
2023-02-13T21:47:11.232Z,95803.00
2023-02-13T21:49:40.418Z,95802.00
2023-02-13T21:52:09.814Z,95805.00
2023-02-13T21:54:39.528Z,95807.00
2023-02-13T21:57:08.600Z,95808.00
2023-02-13T21:59:35.554Z,95810.00
2023-02-13T22:02:07.021Z,95810.00
2023-02-13T22:04:36.367Z,95815.00
2023-02-13T22:07:05.700Z,95816.00
2023-02-13T22:09:35.604Z,95818.00
2023-02-13T22:12:03.574Z,95818.00
2023-02-13T22:14:30.572Z,95817.00
2023-02-13T22:16:57.543Z,95820.00
2023-02-13T22:19:24.601Z,95816.00
2023-02-13T22:21:51.509Z,95812.00
2023-02-13T22:24:18.380Z,95815.00
2023-02-13T22:26:47.468Z,95810.00
2023-02-13T22:29:17.709Z,95807.00
2023-02-13T22:31:45.745Z,95814.00
2023-02-13T22:34:15.633Z,95808.00
2023-02-13T22:36:47.296Z,95799.00
2023-02-13T22:39:16.661Z,95800.00
2023-02-13T22:41:45.748Z,95809.00
2023-02-13T22:44:12.835Z,95799.00
2023-02-13T22:46:39.918Z,95802.00
2023-02-13T22:49:09.107Z,95803.00
2023-02-13T22:51:36.825Z,95805.00
2023-02-13T22:54:06.708Z,95798.00
2023-02-13T22:56:36.910Z,95797.00
2023-02-13T22:59:03.848Z,95796.00
2023-02-13T23:01:31.010Z,95798.00
2023-02-13T23:03:58.595Z,95787.00
2023-02-13T23:06:26.987Z,95789.00
2023-02-13T23:08:54.266Z,95795.00
2023-02-13T23:11:46.434Z,95798.00
2023-02-13T23:14:16.669Z,95791.00
2023-02-13T23:17:05.140Z,95798.00
2023-02-13T23:19:36.555Z,95791.00
2023-02-13T23:22:05.658Z,95799.00
2023-02-13T23:24:32.616Z,95795.00
2023-02-13T23:27:00.312Z,95803.00
2023-02-13T23:29:27.693Z,95794.00
2023-02-13T23:31:57.975Z,95796.00
2023-02-13T23:34:24.949Z,95792.00
2023-02-13T23:36:51.833Z,95790.00
2023-02-13T23:39:21.455Z,95794.00
2023-02-13T23:41:48.359Z,95790.00
2023-02-13T23:44:15.462Z,95795.00
2023-02-13T23:46:42.387Z,95792.00
2023-02-13T23:49:14.255Z,95794.00
2023-02-13T23:51:43.865Z,95794.00
2023-02-13T23:54:18.695Z,95800.00
2023-02-13T23:56:46.058Z,95803.00
2023-02-13T23:59:13.459Z,95800.00
